Liam Torres

Olheiro - Central Córdoba SdE
13 Fev 2028
Domingo
Processo

Personalidade

Adaptabilidade (9) Ambição (3) Controvérsia (8) Lealdade (8) Pressão (10) Profissionalismo (7) Espírito Esportivo (1) Temperamento (1)

Perfil

Estilo de Treinamento Democrático
Licença Nacional A
Determinação 8
Gestão de Pessoas 10
Motivação 5
Disciplina 10
Satisfação no Trabalho
100%
Fadiga
0%
Função Olheiro
Salário 71.4K p/s
Contrato 14.03.2029

Desempenho

Comportamento Bom
Eficácia do Treinamento
45%
Desenvolvimento do Jogador
25%
Prevenção de Lesões
50%
Implementação Tática
50%

Eventos Recentes

Participou de uma reunião de recrutamento 7d atrás
Recomendou um alvo de transferência 7d atrás
Participou de uma reunião de recrutamento 14d atrás
Recomendou um alvo de transferência 14d atrás
Recomendou um alvo de transferência 14d atrás
Participando de desenvolvimento profissional 21d atrás
Participando de desenvolvimento profissional 21d atrás
Participando de desenvolvimento profissional 21d atrás

Monitorando agora

70
Jogador Clube Status Habilidade Confiança Observado Última observação Último voto
Ezequiel Moya Chacarita Juniors Ativo 90 / 96 65% 1 01.12.2026 Aprovar
Bosun Lawal Stoke City Ativo 123 / 116 40% 1 29.11.2026 -
Dara O'Shea Ipswich Town Ativo 135 / 130 40% 2 27.11.2026 -
Lucas Souto Defensa y Justicia Ativo 126 / 132 40% 1 27.11.2026 -
Jordan Lotomba Bloemfontein Celtic Ativo 138 / 119 40% 1 27.11.2026 -
Brooke Norton-Cuffy Hull City Ativo 148 / 128 40% 2 21.11.2026 -
Alfie Jones Middlesbrough Ativo 137 / 131 40% 1 21.11.2026 -
Max Johnston Derby County Ativo 133 / 118 40% 1 20.11.2026 -
Toti Wolverhampton Ativo 136 / 140 40% 1 20.11.2026 -
Ethan Galbraith Swansea City Ativo 142 / 133 40% 2 13.11.2026 -
Max Bird Birmingham Ativo 132 / 140 40% 1 13.11.2026 -
Emiliano Álvarez Progreso Ativo 127 / 123 40% 1 13.11.2026 -
Rodrigo Herrera Newell's Old Boys Ativo 125 / 129 40% 2 12.11.2026 -
Azor Matusiwa Ipswich Town Ativo 143 / 140 40% 1 12.11.2026 -
Pedro Ramírez Deportivo Riestra Ativo 111 / 117 40% 1 12.11.2026 -
Callum Brittain Middlesbrough Ativo 130 / 127 40% 1 11.11.2026 -
Valentín Gómez Betis Ativo 132 / 151 40% 2 09.11.2026 -
Jacques Ekomié Wrexham Ativo 136 / 125 40% 1 08.11.2026 -
Chris Mepham West Bromwich Albion Ativo 130 / 115 40% 1 08.11.2026 -
Gastón Hernández San Lorenzo Ativo 128 / 118 40% 1 07.11.2026 -
Adrián Sánchez Belgrano Ativo 128 / 122 40% 1 06.11.2026 -
Paik Seung-Ho Birmingham Ativo 125 / 119 40% 1 06.11.2026 -
Ethan Pye Stockport County Ativo 124 / 124 40% 1 04.11.2026 -
Jacob Greaves Ipswich Town Ativo 141 / 135 40% 1 04.11.2026 -
James Justin Leeds United Ativo 145 / 147 40% 1 03.11.2026 -
Deano Van Rooyen SuperSport United Ativo 115 / 109 40% 1 03.11.2026 -
Oliver Skipp Leicester City Ativo 142 / 118 40% 1 02.11.2026 -
Teden Mengi Luton Town Ativo 119 / 111 40% 1 02.11.2026 -
Mateo Ortale Khazar Ativo 97 / 93 40% 1 31.10.2026 -
Siro Rosané Estudiantes Ativo 128 / 112 40% 1 31.10.2026 -
Alan García Wanderers Ativo 118 / 108 40% 3 27.10.2026 -
Manu Morlanes Mallorca Ativo 152 / 128 40% 2 27.10.2026 -
Ander Guevara Racing Genk Ativo 142 / 138 40% 2 24.10.2026 -
Nicolás Fernández Penarol Ativo 115 / 114 40% 1 21.10.2026 -
Teboho Mokoena Mamelodi Sundowns Ativo 125 / 143 40% 1 21.10.2026 -
Sergi Cardona KAA Gent Ativo 130 / 145 40% 1 18.10.2026 -
Tomás Alarcón Colo-Colo Ativo 120 / 124 40% 3 14.10.2026 -
Welington Southampton Ativo 117 / 131 40% 1 11.10.2026 -
Sebastián Pereira Union Espanola Ativo 103 / 106 40% 1 09.10.2026 -
Michael Carcelén Queretaro Ativo 124 / 129 40% 1 06.10.2026 -
Omar Campos Cruz Azul Ativo 124 / 120 40% 1 06.10.2026 -
Jesús Orozco Chiquete Cruz Azul Ativo 137 / 119 40% 1 01.10.2026 -
Adonis Frías Atlas Ativo 132 / 118 40% 1 30.09.2026 -
Erik Lira Cruz Azul Ativo 131 / 139 40% 3 29.09.2026 -
Richard Ledezma Guadalajara Ativo 125 / 121 40% 1 29.09.2026 -
Pablo Monroy Pumas UNAM Ativo 115 / 120 40% 1 27.09.2026 -
Alan Mozo Pachuca Ativo 133 / 112 40% 1 27.09.2026 -
Franco Pardo Santos Laguna Ativo 110 / 116 40% 2 23.09.2026 -
Bruno Méndez Toluca Ativo 143 / 129 40% 1 23.09.2026 -
Andrés Colorado Once Caldas Ativo 123 / 109 40% 1 14.09.2026 -
Luís Esteves Atlas Ativo 145 / 138 40% 1 14.09.2026 -
Fernando Beltrán Leon Ativo 137 / 120 40% 1 11.09.2026 -
Joaquín Varela Independiente Medellin Ativo 123 / 120 40% 1 11.09.2026 -
Juan Sierra La Equidad Ativo 132 / 130 40% 2 09.09.2026 -
Yílmar Velásquez Santa Fe Ativo 116 / 112 40% 1 09.09.2026 -
Erick Aguirre Monterrey Ativo 122 / 126 40% 1 07.09.2026 -
Diego Barbosa Toluca Ativo 121 / 134 40% 1 07.09.2026 -
José Ortiz Atletico Bucaramanga Ativo 121 / 117 40% 2 04.09.2026 -
Pedro Vite Pumas UNAM Ativo 121 / 133 40% 1 04.09.2026 -
Joaquim Tigres Ativo 126 / 116 40% 2 03.09.2026 -
Gerardo Arteaga Monterrey Ativo 143 / 132 40% 1 01.09.2026 -
Fidel Ambríz Monterrey Ativo 130 / 129 40% 1 01.09.2026 -
Carlos Adrián Sánchez Pachuca Ativo 99 / 118 40% 1 28.08.2026 -
Alexis Gutiérrez Club America Ativo 106 / 118 40% 1 27.08.2026 -
Mateo Garavito Deportivo Pasto Ativo 119 / 119 40% 1 22.08.2026 -
Willer Ditta Cruz Azul Ativo 126 / 127 40% 1 22.08.2026 -
Diego Chávez Deportivo Pasto Ativo 115 / 116 40% 1 11.08.2026 -
Bruno Amione Santos Laguna Ativo 126 / 110 40% 1 11.08.2026 -
Jesús Angulo Tigres Ativo 147 / 134 40% 1 07.08.2026 -
Camilo Martinez Cortulua Ativo 119 / 123 40% 1 01.08.2026 -